sensor_id;sensor_type;location;lat;lon;timestamp;P1;durP1;ratioP1;P2;durP2;ratioP2
75112;SDS011;63692;47.338;8.520;2023-02-28T05:34:11;14.13;;;8.10;;
75112;SDS011;63692;47.338;8.520;2023-02-28T05:36:38;11.80;;;8.10;;
75112;SDS011;63692;47.338;8.520;2023-02-28T05:39:05;12.05;;;8.15;;
75112;SDS011;63692;47.338;8.520;2023-02-28T05:41:32;14.38;;;8.35;;
75112;SDS011;63692;47.338;8.520;2023-02-28T05:43:59;12.77;;;8.35;;
75112;SDS011;63692;47.338;8.520;2023-02-28T05:46:25;12.23;;;7.60;;
75112;SDS011;63692;47.338;8.520;2023-02-28T05:48:51;11.85;;;8.25;;
75112;SDS011;63692;47.338;8.520;2023-02-28T05:51:16;13.52;;;8.70;;
75112;SDS011;63692;47.338;8.520;2023-02-28T06:05:59;13.23;;;8.57;;
75112;SDS011;63692;47.338;8.520;2023-02-28T06:08:29;13.32;;;8.45;;
75112;SDS011;63692;47.338;8.520;2023-02-28T06:10:54;12.90;;;8.32;;
75112;SDS011;63692;47.338;8.520;2023-02-28T06:14:09;12.18;;;8.23;;
75112;SDS011;63692;47.338;8.520;2023-02-28T06:17:02;10.23;;;7.60;;
75112;SDS011;63692;47.338;8.520;2023-02-28T06:19:28;12.70;;;8.50;;
75112;SDS011;63692;47.338;8.520;2023-02-28T06:21:55;11.50;;;8.50;;
75112;SDS011;63692;47.338;8.520;2023-02-28T06:24:27;13.13;;;8.30;;
75112;SDS011;63692;47.338;8.520;2023-02-28T06:26:56;12.40;;;7.82;;
75112;SDS011;63692;47.338;8.520;2023-02-28T06:34:26;12.95;;;8.10;;
75112;SDS011;63692;47.338;8.520;2023-02-28T06:36:52;17.90;;;8.32;;
75112;SDS011;63692;47.338;8.520;2023-02-28T06:39:18;13.10;;;7.97;;
75112;SDS011;63692;47.338;8.520;2023-02-28T06:41:43;13.48;;;8.45;;
75112;SDS011;63692;47.338;8.520;2023-02-28T06:44:11;12.85;;;8.15;;
75112;SDS011;63692;47.338;8.520;2023-02-28T06:46:39;12.85;;;8.48;;
75112;SDS011;63692;47.338;8.520;2023-02-28T06:49:05;13.25;;;8.60;;
75112;SDS011;63692;47.338;8.520;2023-02-28T06:51:33;12.90;;;8.52;;
75112;SDS011;63692;47.338;8.520;2023-02-28T06:53:59;12.95;;;8.07;;
75112;SDS011;63692;47.338;8.520;2023-02-28T06:56:25;16.70;;;8.25;;
75112;SDS011;63692;47.338;8.520;2023-02-28T06:58:51;13.88;;;8.77;;
75112;SDS011;63692;47.338;8.520;2023-02-28T07:01:17;11.73;;;8.40;;
75112;SDS011;63692;47.338;8.520;2023-02-28T07:03:44;12.93;;;8.35;;
75112;SDS011;63692;47.338;8.520;2023-02-28T07:06:10;12.15;;;8.52;;
75112;SDS011;63692;47.338;8.520;2023-02-28T07:08:36;13.80;;;8.27;;
75112;SDS011;63692;47.338;8.520;2023-02-28T07:11:02;12.50;;;8.30;;
75112;SDS011;63692;47.338;8.520;2023-02-28T07:13:28;11.02;;;7.95;;
75112;SDS011;63692;47.338;8.520;2023-02-28T07:15:58;13.70;;;9.02;;
75112;SDS011;63692;47.338;8.520;2023-02-28T07:18:28;16.08;;;9.38;;
75112;SDS011;63692;47.338;8.520;2023-02-28T07:20:54;12.30;;;8.55;;
75112;SDS011;63692;47.338;8.520;2023-02-28T07:23:20;13.50;;;8.77;;
75112;SDS011;63692;47.338;8.520;2023-02-28T07:25:46;13.07;;;8.27;;
75112;SDS011;63692;47.338;8.520;2023-02-28T07:28:12;12.50;;;8.43;;
75112;SDS011;63692;47.338;8.520;2023-02-28T07:30:39;12.60;;;8.70;;
75112;SDS011;63692;47.338;8.520;2023-02-28T07:33:05;12.25;;;8.65;;
75112;SDS011;63692;47.338;8.520;2023-02-28T07:35:31;12.82;;;8.45;;
75112;SDS011;63692;47.338;8.520;2023-02-28T07:37:57;12.95;;;8.60;;
75112;SDS011;63692;47.338;8.520;2023-02-28T07:40:23;13.18;;;8.57;;
75112;SDS011;63692;47.338;8.520;2023-02-28T07:42:48;12.23;;;8.30;;
75112;SDS011;63692;47.338;8.520;2023-02-28T07:45:14;12.70;;;8.18;;
75112;SDS011;63692;47.338;8.520;2023-02-28T07:47:40;12.60;;;8.23;;
75112;SDS011;63692;47.338;8.520;2023-02-28T07:50:07;14.88;;;9.10;;
75112;SDS011;63692;47.338;8.520;2023-02-28T07:52:34;14.05;;;8.68;;
75112;SDS011;63692;47.338;8.520;2023-02-28T07:55:00;13.57;;;8.70;;
75112;SDS011;63692;47.338;8.520;2023-02-28T07:57:28;13.93;;;8.63;;
75112;SDS011;63692;47.338;8.520;2023-02-28T07:59:53;12.77;;;8.80;;
75112;SDS011;63692;47.338;8.520;2023-02-28T08:02:21;15.43;;;9.02;;
75112;SDS011;63692;47.338;8.520;2023-02-28T08:05:03;13.40;;;9.10;;
75112;SDS011;63692;47.338;8.520;2023-02-28T08:07:29;13.05;;;8.70;;
75112;SDS011;63692;47.338;8.520;2023-02-28T08:09:55;14.02;;;8.63;;
75112;SDS011;63692;47.338;8.520;2023-02-28T08:16:00;12.82;;;8.73;;
75112;SDS011;63692;47.338;8.520;2023-02-28T08:19:04;12.90;;;8.50;;
75112;SDS011;63692;47.338;8.520;2023-02-28T08:21:37;13.27;;;8.95;;
75112;SDS011;63692;47.338;8.520;2023-02-28T08:24:06;12.60;;;8.60;;
75112;SDS011;63692;47.338;8.520;2023-02-28T08:26:32;14.45;;;9.57;;
75112;SDS011;63692;47.338;8.520;2023-02-28T08:28:58;12.05;;;8.90;;
75112;SDS011;63692;47.338;8.520;2023-02-28T08:31:23;15.30;;;9.18;;
75112;SDS011;63692;47.338;8.520;2023-02-28T08:33:49;13.63;;;9.15;;
75112;SDS011;63692;47.338;8.520;2023-02-28T08:36:16;14.80;;;9.27;;
75112;SDS011;63692;47.338;8.520;2023-02-28T08:38:44;14.57;;;9.88;;
75112;SDS011;63692;47.338;8.520;2023-02-28T08:41:10;12.82;;;9.40;;
75112;SDS011;63692;47.338;8.520;2023-02-28T08:43:37;15.55;;;9.38;;
75112;SDS011;63692;47.338;8.520;2023-02-28T08:46:04;14.02;;;9.30;;
75112;SDS011;63692;47.338;8.520;2023-02-28T08:48:31;15.45;;;9.15;;
75112;SDS011;63692;47.338;8.520;2023-02-28T08:51:02;11.48;;;8.60;;
75112;SDS011;63692;47.338;8.520;2023-02-28T08:53:54;13.60;;;8.98;;
75112;SDS011;63692;47.338;8.520;2023-02-28T08:56:24;14.38;;;8.98;;
75112;SDS011;63692;47.338;8.520;2023-02-28T08:58:50;12.48;;;9.00;;
75112;SDS011;63692;47.338;8.520;2023-02-28T09:01:17;14.02;;;9.48;;
75112;SDS011;63692;47.338;8.520;2023-02-28T09:03:45;13.40;;;8.88;;
75112;SDS011;63692;47.338;8.520;2023-02-28T09:06:11;13.18;;;8.50;;
75112;SDS011;63692;47.338;8.520;2023-02-28T09:08:38;13.50;;;8.98;;
75112;SDS011;63692;47.338;8.520;2023-02-28T09:11:05;14.13;;;9.32;;
75112;SDS011;63692;47.338;8.520;2023-02-28T09:13:31;15.15;;;9.48;;
75112;SDS011;63692;47.338;8.520;2023-02-28T09:15:58;13.43;;;9.77;;
75112;SDS011;63692;47.338;8.520;2023-02-28T09:18:25;14.80;;;10.00;;
75112;SDS011;63692;47.338;8.520;2023-02-28T09:20:51;15.45;;;9.13;;
75112;SDS011;63692;47.338;8.520;2023-02-28T09:23:17;14.05;;;9.43;;
75112;SDS011;63692;47.338;8.520;2023-02-28T09:25:52;12.93;;;9.05;;
75112;SDS011;63692;47.338;8.520;2023-02-28T09:28:19;13.43;;;8.60;;
75112;SDS011;63692;47.338;8.520;2023-02-28T09:30:46;12.32;;;8.82;;
75112;SDS011;63692;47.338;8.520;2023-02-28T09:33:14;15.32;;;9.43;;
75112;SDS011;63692;47.338;8.520;2023-02-28T09:35:41;14.07;;;9.50;;
75112;SDS011;63692;47.338;8.520;2023-02-28T09:38:08;15.10;;;9.18;;
75112;SDS011;63692;47.338;8.520;2023-02-28T09:40:35;15.30;;;9.15;;
75112;SDS011;63692;47.338;8.520;2023-02-28T09:43:05;15.45;;;8.48;;
75112;SDS011;63692;47.338;8.520;2023-02-28T09:45:36;13.13;;;9.15;;
75112;SDS011;63692;47.338;8.520;2023-02-28T09:48:14;13.18;;;9.07;;
75112;SDS011;63692;47.338;8.520;2023-02-28T09:50:46;14.32;;;9.25;;
75112;SDS011;63692;47.338;8.520;2023-02-28T09:53:31;16.27;;;9.13;;
75112;SDS011;63692;47.338;8.520;2023-02-28T10:01:06;14.18;;;9.10;;
75112;SDS011;63692;47.338;8.520;2023-02-28T10:03:51;14.98;;;9.00;;
75112;SDS011;63692;47.338;8.520;2023-02-28T10:11:50;14.65;;;9.10;;
75112;SDS011;63692;47.338;8.520;2023-02-28T10:14:22;14.65;;;8.85;;
75112;SDS011;63692;47.338;8.520;2023-02-28T10:17:08;13.88;;;8.70;;
75112;SDS011;63692;47.338;8.520;2023-02-28T10:24:54;13.70;;;9.20;;
75112;SDS011;63692;47.338;8.520;2023-02-28T10:27:25;14.27;;;9.40;;
75112;SDS011;63692;47.338;8.520;2023-02-28T10:29:57;16.45;;;9.50;;
75112;SDS011;63692;47.338;8.520;2023-02-28T10:32:26;18.10;;;9.65;;
75112;SDS011;63692;47.338;8.520;2023-02-28T10:37:39;15.00;;;9.73;;
75112;SDS011;63692;47.338;8.520;2023-02-28T10:40:07;15.48;;;9.50;;
75112;SDS011;63692;47.338;8.520;2023-02-28T10:42:56;14.35;;;8.77;;
75112;SDS011;63692;47.338;8.520;2023-02-28T10:45:23;14.05;;;9.40;;
75112;SDS011;63692;47.338;8.520;2023-02-28T10:55:43;16.58;;;9.07;;
75112;SDS011;63692;47.338;8.520;2023-02-28T10:58:22;15.88;;;8.50;;
75112;SDS011;63692;47.338;8.520;2023-02-28T11:00:49;14.10;;;9.07;;
75112;SDS011;63692;47.338;8.520;2023-02-28T11:03:50;16.67;;;9.35;;
75112;SDS011;63692;47.338;8.520;2023-02-28T11:08:48;15.50;;;9.18;;
75112;SDS011;63692;47.338;8.520;2023-02-28T11:13:45;15.10;;;9.05;;
75112;SDS011;63692;47.338;8.520;2023-02-28T11:16:13;14.60;;;8.65;;
75112;SDS011;63692;47.338;8.520;2023-02-28T11:21:15;13.85;;;8.98;;
75112;SDS011;63692;47.338;8.520;2023-02-28T11:23:46;13.20;;;9.20;;
75112;SDS011;63692;47.338;8.520;2023-02-28T11:28:41;12.93;;;8.73;;
75112;SDS011;63692;47.338;8.520;2023-02-28T11:33:43;15.75;;;8.85;;
75112;SDS011;63692;47.338;8.520;2023-02-28T11:36:22;13.48;;;9.00;;
75112;SDS011;63692;47.338;8.520;2023-02-28T11:39:10;12.90;;;9.27;;
75112;SDS011;63692;47.338;8.520;2023-02-28T11:47:35;15.13;;;9.02;;
75112;SDS011;63692;47.338;8.520;2023-02-28T11:55:29;14.88;;;9.18;;
75112;SDS011;63692;47.338;8.520;2023-02-28T12:01:18;14.57;;;9.55;;
75112;SDS011;63692;47.338;8.520;2023-02-28T12:03:29;12.90;;;8.80;;
75112;SDS011;63692;47.338;8.520;2023-02-28T12:09:00;16.63;;;9.43;;
75112;SDS011;63692;47.338;8.520;2023-02-28T12:11:49;18.80;;;9.90;;
75112;SDS011;63692;47.338;8.520;2023-02-28T12:15:05;13.23;;;9.05;;
75112;SDS011;63692;47.338;8.520;2023-02-28T12:18:17;14.60;;;9.80;;
75112;SDS011;63692;47.338;8.520;2023-02-28T12:20:28;15.20;;;9.60;;
75112;SDS011;63692;47.338;8.520;2023-02-28T12:28:09;14.88;;;9.80;;
75112;SDS011;63692;47.338;8.520;2023-02-28T12:30:47;14.55;;;9.55;;
75112;SDS011;63692;47.338;8.520;2023-02-28T12:33:30;13.02;;;9.00;;
75112;SDS011;63692;47.338;8.520;2023-02-28T12:36:09;14.90;;;10.07;;
75112;SDS011;63692;47.338;8.520;2023-02-28T12:57:18;17.00;;;9.77;;
75112;SDS011;63692;47.338;8.520;2023-02-28T13:04:56;15.70;;;10.43;;
75112;SDS011;63692;47.338;8.520;2023-02-28T13:10:48;14.73;;;10.13;;
75112;SDS011;63692;47.338;8.520;2023-02-28T13:13:20;15.73;;;10.35;;
75112;SDS011;63692;47.338;8.520;2023-02-28T13:18:36;15.55;;;10.02;;
75112;SDS011;63692;47.338;8.520;2023-02-28T13:21:08;17.55;;;9.68;;
75112;SDS011;63692;47.338;8.520;2023-02-28T13:31:23;15.45;;;10.63;;
75112;SDS011;63692;47.338;8.520;2023-02-28T13:39:11;17.00;;;10.70;;
75112;SDS011;63692;47.338;8.520;2023-02-28T13:42:05;17.45;;;10.25;;
75112;SDS011;63692;47.338;8.520;2023-02-28T13:45:28;17.85;;;10.50;;
75112;SDS011;63692;47.338;8.520;2023-02-28T13:47:36;15.18;;;10.05;;
75112;SDS011;63692;47.338;8.520;2023-02-28T13:50:15;17.92;;;11.07;;
75112;SDS011;63692;47.338;8.520;2023-02-28T13:53:14;18.17;;;10.27;;
75112;SDS011;63692;47.338;8.520;2023-02-28T14:06:37;16.98;;;10.32;;
75112;SDS011;63692;47.338;8.520;2023-02-28T14:11:37;15.88;;;10.80;;
75112;SDS011;63692;47.338;8.520;2023-02-28T14:14:06;16.67;;;10.63;;
75112;SDS011;63692;47.338;8.520;2023-02-28T14:16:44;15.32;;;10.27;;
75112;SDS011;63692;47.338;8.520;2023-02-28T14:35:16;17.55;;;10.95;;
75112;SDS011;63692;47.338;8.520;2023-02-28T14:37:50;19.45;;;11.65;;
75112;SDS011;63692;47.338;8.520;2023-02-28T14:40:17;18.65;;;11.57;;
75112;SDS011;63692;47.338;8.520;2023-02-28T14:43:35;17.63;;;10.73;;
75112;SDS011;63692;47.338;8.520;2023-02-28T14:45:49;18.65;;;11.20;;
75112;SDS011;63692;47.338;8.520;2023-02-28T14:48:16;17.20;;;11.00;;
75112;SDS011;63692;47.338;8.520;2023-02-28T14:50:48;17.83;;;11.30;;
75112;SDS011;63692;47.338;8.520;2023-02-28T14:53:17;15.68;;;10.07;;
75112;SDS011;63692;47.338;8.520;2023-02-28T14:55:45;17.85;;;11.43;;
75112;SDS011;63692;47.338;8.520;2023-02-28T14:58:25;17.65;;;11.05;;
75112;SDS011;63692;47.338;8.520;2023-02-28T15:00:57;19.27;;;11.75;;
75112;SDS011;63692;47.338;8.520;2023-02-28T15:03:29;17.58;;;11.43;;
75112;SDS011;63692;47.338;8.520;2023-02-28T15:05:58;16.10;;;10.48;;
75112;SDS011;63692;47.338;8.520;2023-02-28T15:08:26;16.88;;;11.57;;
75112;SDS011;63692;47.338;8.520;2023-02-28T15:13:28;17.63;;;11.32;;
75112;SDS011;63692;47.338;8.520;2023-02-28T15:16:45;18.58;;;11.15;;
75112;SDS011;63692;47.338;8.520;2023-02-28T15:21:46;19.60;;;11.82;;
75112;SDS011;63692;47.338;8.520;2023-02-28T15:24:16;17.20;;;11.63;;
75112;SDS011;63692;47.338;8.520;2023-02-28T15:27:00;17.08;;;11.98;;
75112;SDS011;63692;47.338;8.520;2023-02-28T15:29:32;17.58;;;11.40;;
75112;SDS011;63692;47.338;8.520;2023-02-28T15:32:26;20.40;;;12.52;;
75112;SDS011;63692;47.338;8.520;2023-02-28T15:34:57;19.63;;;12.40;;
75112;SDS011;63692;47.338;8.520;2023-02-28T15:37:27;20.00;;;12.35;;
75112;SDS011;63692;47.338;8.520;2023-02-28T15:40:22;19.95;;;12.38;;
75112;SDS011;63692;47.338;8.520;2023-02-28T15:45:35;22.38;;;12.90;;
75112;SDS011;63692;47.338;8.520;2023-02-28T15:48:25;19.85;;;13.00;;
75112;SDS011;63692;47.338;8.520;2023-02-28T15:51:07;19.63;;;13.20;;
75112;SDS011;63692;47.338;8.520;2023-02-28T15:56:49;21.73;;;12.60;;
75112;SDS011;63692;47.338;8.520;2023-02-28T15:59:24;20.10;;;12.80;;
75112;SDS011;63692;47.338;8.520;2023-02-28T16:02:04;20.52;;;12.73;;
75112;SDS011;63692;47.338;8.520;2023-02-28T16:07:22;19.13;;;12.32;;
75112;SDS011;63692;47.338;8.520;2023-02-28T16:09:49;23.17;;;13.68;;
75112;SDS011;63692;47.338;8.520;2023-02-28T16:12:14;22.85;;;12.98;;
75112;SDS011;63692;47.338;8.520;2023-02-28T16:14:40;20.45;;;13.63;;
75112;SDS011;63692;47.338;8.520;2023-02-28T16:22:02;23.30;;;13.82;;
75112;SDS011;63692;47.338;8.520;2023-02-28T16:24:27;24.65;;;13.45;;
75112;SDS011;63692;47.338;8.520;2023-02-28T16:26:53;21.90;;;14.73;;
75112;SDS011;63692;47.338;8.520;2023-02-28T16:31:54;22.60;;;14.68;;
75112;SDS011;63692;47.338;8.520;2023-02-28T16:34:20;22.02;;;13.90;;
75112;SDS011;63692;47.338;8.520;2023-02-28T16:36:47;26.00;;;14.75;;
75112;SDS011;63692;47.338;8.520;2023-02-28T16:39:14;25.48;;;14.95;;
75112;SDS011;63692;47.338;8.520;2023-02-28T16:41:41;21.67;;;13.75;;
75112;SDS011;63692;47.338;8.520;2023-02-28T16:44:10;23.75;;;14.07;;
75112;SDS011;63692;47.338;8.520;2023-02-28T16:46:39;22.23;;;14.15;;
75112;SDS011;63692;47.338;8.520;2023-02-28T16:49:04;21.55;;;14.55;;
75112;SDS011;63692;47.338;8.520;2023-02-28T16:51:35;22.92;;;14.75;;
75112;SDS011;63692;47.338;8.520;2023-02-28T16:54:00;22.05;;;14.20;;
75112;SDS011;63692;47.338;8.520;2023-02-28T16:56:26;21.85;;;14.48;;
75112;SDS011;63692;47.338;8.520;2023-02-28T17:03:47;22.67;;;14.45;;
75112;SDS011;63692;47.338;8.520;2023-02-28T17:06:20;23.50;;;14.70;;
75112;SDS011;63692;47.338;8.520;2023-02-28T17:08:49;21.48;;;14.13;;
75112;SDS011;63692;47.338;8.520;2023-02-28T17:11:15;25.13;;;14.52;;
75112;SDS011;63692;47.338;8.520;2023-02-28T17:13:43;23.23;;;14.48;;
75112;SDS011;63692;47.338;8.520;2023-02-28T17:16:11;22.52;;;14.50;;
75112;SDS011;63692;47.338;8.520;2023-02-28T17:18:54;21.55;;;14.68;;
75112;SDS011;63692;47.338;8.520;2023-02-28T17:21:25;22.02;;;14.40;;
75112;SDS011;63692;47.338;8.520;2023-02-28T17:23:52;23.30;;;14.75;;
75112;SDS011;63692;47.338;8.520;2023-02-28T17:26:18;26.48;;;15.25;;
75112;SDS011;63692;47.338;8.520;2023-02-28T17:28:45;25.45;;;14.57;;
75112;SDS011;63692;47.338;8.520;2023-02-28T17:31:11;23.23;;;14.70;;
75112;SDS011;63692;47.338;8.520;2023-02-28T17:33:37;23.05;;;14.32;;
75112;SDS011;63692;47.338;8.520;2023-02-28T17:36:03;22.75;;;14.57;;
75112;SDS011;63692;47.338;8.520;2023-02-28T17:38:29;22.15;;;14.07;;
75112;SDS011;63692;47.338;8.520;2023-02-28T17:40:55;23.08;;;14.45;;
75112;SDS011;63692;47.338;8.520;2023-02-28T17:43:25;24.15;;;14.95;;
75112;SDS011;63692;47.338;8.520;2023-02-28T17:45:51;23.75;;;14.90;;
75112;SDS011;63692;47.338;8.520;2023-02-28T17:50:46;26.83;;;14.63;;
75112;SDS011;63692;47.338;8.520;2023-02-28T17:55:39;21.95;;;14.73;;
75112;SDS011;63692;47.338;8.520;2023-02-28T17:58:05;20.55;;;14.25;;
75112;SDS011;63692;47.338;8.520;2023-02-28T18:00:31;22.73;;;14.25;;
75112;SDS011;63692;47.338;8.520;2023-02-28T18:02:58;23.65;;;15.88;;
75112;SDS011;63692;47.338;8.520;2023-02-28T18:05:24;23.27;;;15.20;;
75112;SDS011;63692;47.338;8.520;2023-02-28T18:07:50;22.20;;;15.02;;
75112;SDS011;63692;47.338;8.520;2023-02-28T18:10:17;22.98;;;15.02;;
75112;SDS011;63692;47.338;8.520;2023-02-28T18:12:48;24.02;;;15.05;;
75112;SDS011;63692;47.338;8.520;2023-02-28T18:15:16;23.35;;;15.40;;
75112;SDS011;63692;47.338;8.520;2023-02-28T18:17:44;24.23;;;14.45;;
75112;SDS011;63692;47.338;8.520;2023-02-28T18:20:11;22.92;;;15.63;;
75112;SDS011;63692;47.338;8.520;2023-02-28T18:22:37;26.80;;;15.43;;
75112;SDS011;63692;47.338;8.520;2023-02-28T18:25:04;24.98;;;15.30;;
75112;SDS011;63692;47.338;8.520;2023-02-28T18:27:31;24.85;;;15.57;;
75112;SDS011;63692;47.338;8.520;2023-02-28T18:29:57;23.98;;;15.57;;
75112;SDS011;63692;47.338;8.520;2023-02-28T18:32:22;25.25;;;16.10;;
75112;SDS011;63692;47.338;8.520;2023-02-28T18:34:48;21.65;;;15.32;;
75112;SDS011;63692;47.338;8.520;2023-02-28T18:37:14;22.98;;;16.05;;
75112;SDS011;63692;47.338;8.520;2023-02-28T18:39:40;23.77;;;15.32;;
75112;SDS011;63692;47.338;8.520;2023-02-28T18:42:06;28.88;;;17.05;;
75112;SDS011;63692;47.338;8.520;2023-02-28T18:44:32;23.65;;;14.68;;
75112;SDS011;63692;47.338;8.520;2023-02-28T18:46:57;24.42;;;15.40;;
75112;SDS011;63692;47.338;8.520;2023-02-28T18:49:23;25.05;;;14.85;;
75112;SDS011;63692;47.338;8.520;2023-02-28T18:51:49;28.02;;;15.27;;
75112;SDS011;63692;47.338;8.520;2023-02-28T18:54:15;23.30;;;15.50;;
75112;SDS011;63692;47.338;8.520;2023-02-28T18:56:41;24.05;;;15.82;;
75112;SDS011;63692;47.338;8.520;2023-02-28T18:59:06;26.15;;;16.00;;
75112;SDS011;63692;47.338;8.520;2023-02-28T19:01:32;24.42;;;14.95;;
75112;SDS011;63692;47.338;8.520;2023-02-28T19:03:59;28.00;;;16.58;;
75112;SDS011;63692;47.338;8.520;2023-02-28T19:06:25;24.70;;;15.73;;
75112;SDS011;63692;47.338;8.520;2023-02-28T19:08:52;22.52;;;14.68;;
75112;SDS011;63692;47.338;8.520;2023-02-28T19:11:19;23.30;;;15.93;;
75112;SDS011;63692;47.338;8.520;2023-02-28T19:13:45;23.88;;;15.60;;
75112;SDS011;63692;47.338;8.520;2023-02-28T19:16:11;26.40;;;16.45;;
75112;SDS011;63692;47.338;8.520;2023-02-28T19:18:38;26.15;;;17.50;;
75112;SDS011;63692;47.338;8.520;2023-02-28T19:21:05;24.73;;;15.85;;
75112;SDS011;63692;47.338;8.520;2023-02-28T19:23:32;26.95;;;16.98;;
75112;SDS011;63692;47.338;8.520;2023-02-28T19:25:58;25.75;;;15.82;;
75112;SDS011;63692;47.338;8.520;2023-02-28T19:28:26;26.25;;;17.10;;
75112;SDS011;63692;47.338;8.520;2023-02-28T19:30:54;24.63;;;15.82;;
75112;SDS011;63692;47.338;8.520;2023-02-28T19:33:20;25.52;;;17.13;;
75112;SDS011;63692;47.338;8.520;2023-02-28T19:35:46;25.05;;;16.33;;
75112;SDS011;63692;47.338;8.520;2023-02-28T19:38:12;27.42;;;16.23;;
75112;SDS011;63692;47.338;8.520;2023-02-28T19:40:38;27.42;;;16.85;;
75112;SDS011;63692;47.338;8.520;2023-02-28T19:43:04;24.92;;;16.25;;
75112;SDS011;63692;47.338;8.520;2023-02-28T19:45:31;25.55;;;16.42;;
75112;SDS011;63692;47.338;8.520;2023-02-28T19:47:57;27.83;;;16.90;;
75112;SDS011;63692;47.338;8.520;2023-02-28T19:50:23;27.00;;;16.60;;
75112;SDS011;63692;47.338;8.520;2023-02-28T19:52:48;24.45;;;16.30;;
75112;SDS011;63692;47.338;8.520;2023-02-28T19:55:14;28.08;;;16.52;;
75112;SDS011;63692;47.338;8.520;2023-02-28T19:57:41;26.45;;;16.98;;
75112;SDS011;63692;47.338;8.520;2023-02-28T20:00:07;28.10;;;17.42;;
75112;SDS011;63692;47.338;8.520;2023-02-28T20:02:34;26.48;;;17.40;;
75112;SDS011;63692;47.338;8.520;2023-02-28T20:05:05;27.75;;;17.10;;
75112;SDS011;63692;47.338;8.520;2023-02-28T20:07:31;25.05;;;16.52;;
75112;SDS011;63692;47.338;8.520;2023-02-28T20:09:56;24.85;;;15.75;;
75112;SDS011;63692;47.338;8.520;2023-02-28T20:12:22;28.52;;;16.70;;
75112;SDS011;63692;47.338;8.520;2023-02-28T20:14:48;26.05;;;16.27;;
75112;SDS011;63692;47.338;8.520;2023-02-28T20:17:14;25.80;;;15.93;;
75112;SDS011;63692;47.338;8.520;2023-02-28T20:19:40;27.73;;;16.33;;
75112;SDS011;63692;47.338;8.520;2023-02-28T20:22:06;27.25;;;16.75;;
